Huvudsida
METAR-TAF:

METAR-TAF

Flygplatser :

Splits flygplats

Split, Kroatien

latitud: 43-32N, longitud: 016-18E, höjd: 19 m

Aktuellt väderrapport

Denna rapport gjordes för 21 minuter sedan, klockan 00:00 UTC
Vind 7 kt från ost, varierande mellan ost/nordost och sydost
Temperatur 7°C
Fuktighet 42%
Tryck 1031 hPa
Sikt 10 km eller mer
Inga moln under 1 500 m eller inga cumulonimbus

METAR: LDSP 200000Z AUTO 10007KT 060V140 CAVOK 07/M05 Q1031

Tid: 01:21 (00:21 UTC)

Väderprognos

Denna rapport gjordes för 56 minuter sedan, klockan 23:25 UTC
Prognos gäller från 20 kl. 00 UTC till 21 kl. 00 UTC
Vind 8 kt från nordost
Sikt 10 km eller mer
Inga moln under 1 500 m eller inga cumulonimbus
Sannolikhet 40% :
Temporärt
från 20 kl. 00 UTC till 20 kl. 06 UTC
Vind 15 kt från nordost i byarna ända upp till 25 kt
Blir
från 20 kl. 09 UTC till 20 kl. 11 UTC
Vind 5 kt från ost

TAF: LDSP 192325Z 2000/2100 04008KT CAVOK TX11/2014Z TN05/2006Z PROB40 TEMPO 2000/2006 05015G25KT BECMG 2009/2011 08005KT

Aktuella väderrapporter och prognoser från 4000 flygplatser (METAR- och TAF-rapporter).

De tillgängliga stationerna syns som gula och röda prickar på kartan.

För musen över prickarna för att se namnen på stationerna.

Klicka sedan för att få väderrapporter och prognoser.

För att ändra kartan: Klicka på de gröna knapparna med ett svart kors på för att zooma in; den gröna knappen med ett streck på för att zooma ut; eller på de gröna pilarna för angränsande kartor.


METAR-TAF: